createdAt,value
2022-12-22T00:00:59.777Z,8.43
2022-12-22T00:03:26.598Z,8.82
2022-12-22T00:05:53.310Z,8.14
2022-12-22T00:08:19.921Z,8.47
2022-12-22T00:10:46.642Z,8.32
2022-12-22T00:13:13.743Z,8.21
2022-12-22T00:15:40.399Z,8.49
2022-12-22T00:18:12.069Z,8.60
2022-12-22T00:20:38.660Z,8.36
2022-12-22T00:23:05.249Z,8.71
2022-12-22T00:25:31.881Z,8.23
2022-12-22T00:27:58.635Z,8.50
2022-12-22T00:30:25.384Z,8.31
2022-12-22T00:32:52.122Z,8.32
2022-12-22T00:35:20.568Z,8.04
2022-12-22T00:37:47.162Z,7.69
2022-12-22T00:40:21.429Z,7.49
2022-12-22T00:42:48.040Z,7.74
2022-12-22T00:45:14.706Z,7.54
2022-12-22T00:47:41.296Z,7.33
2022-12-22T00:50:08.472Z,7.39
2022-12-22T00:52:35.141Z,7.67
2022-12-22T00:55:01.814Z,7.82
2022-12-22T00:57:28.485Z,7.81
2022-12-22T00:59:55.152Z,7.66
2022-12-22T01:02:21.888Z,7.56
2022-12-22T01:04:48.566Z,7.87
2022-12-22T01:07:15.926Z,7.84
2022-12-22T01:09:42.511Z,7.86
2022-12-22T01:12:23.537Z,7.80
2022-12-22T01:14:50.231Z,8.05
2022-12-22T01:17:16.848Z,7.40
2022-12-22T01:19:43.442Z,7.22
2022-12-22T01:22:13.281Z,7.41
2022-12-22T01:24:39.924Z,7.06
2022-12-22T01:27:08.312Z,6.81
2022-12-22T01:29:34.972Z,7.44
2022-12-22T01:32:01.581Z,6.34
2022-12-22T01:34:28.198Z,6.73
2022-12-22T01:36:54.801Z,6.59
2022-12-22T01:39:21.380Z,6.76
2022-12-22T01:41:48.520Z,7.06
2022-12-22T01:44:16.004Z,7.06
2022-12-22T01:46:44.244Z,7.02
2022-12-22T01:49:34.626Z,6.85
2022-12-22T01:52:01.244Z,6.97
2022-12-22T01:54:27.883Z,7.10
2022-12-22T01:56:54.592Z,6.63
2022-12-22T01:59:21.282Z,7.22
2022-12-22T02:01:47.993Z,7.04
2022-12-22T02:04:14.736Z,7.00
2022-12-22T02:06:42.283Z,7.42
2022-12-22T02:09:40.042Z,6.98
2022-12-22T02:12:15.559Z,6.79
2022-12-22T02:14:49.873Z,7.01
2022-12-22T02:17:28.590Z,6.86
2022-12-22T02:20:13.335Z,6.95
2022-12-22T02:22:57.987Z,6.68
2022-12-22T02:25:28.345Z,6.61
2022-12-22T02:27:55.006Z,6.76
2022-12-22T02:30:21.667Z,6.72
2022-12-22T02:32:48.279Z,7.03
2022-12-22T02:35:16.210Z,6.83
2022-12-22T02:37:45.642Z,6.57
2022-12-22T02:40:23.955Z,6.71
2022-12-22T02:42:58.138Z,6.78
2022-12-22T02:45:48.434Z,6.80
2022-12-22T02:48:17.360Z,7.09
2022-12-22T02:50:47.168Z,7.10
2022-12-22T02:53:14.086Z,6.74
2022-12-22T02:55:40.762Z,7.01
2022-12-22T02:58:07.641Z,6.44
2022-12-22T03:00:34.306Z,6.67
2022-12-22T03:03:01.343Z,6.34
2022-12-22T03:05:28.036Z,6.96
2022-12-22T03:07:54.678Z,6.75
2022-12-22T03:10:21.367Z,6.87
2022-12-22T03:12:47.972Z,6.53
2022-12-22T03:15:14.718Z,6.15
2022-12-22T03:17:41.363Z,5.31
2022-12-22T03:20:08.435Z,4.88
2022-12-22T03:22:35.041Z,5.87
2022-12-22T03:25:01.676Z,5.45
2022-12-22T03:27:28.300Z,5.10
2022-12-22T03:29:54.941Z,4.82
2022-12-22T03:32:21.664Z,4.76
2022-12-22T03:34:48.265Z,5.12
2022-12-22T03:37:14.932Z,4.60
2022-12-22T03:39:41.575Z,4.18
2022-12-22T03:42:11.451Z,3.95
2022-12-22T03:44:38.042Z,3.60
2022-12-22T03:47:04.715Z,3.76
2022-12-22T03:49:31.337Z,3.51
2022-12-22T03:51:57.985Z,3.49
2022-12-22T03:54:25.309Z,3.34
2022-12-22T03:56:52.276Z,3.26
2022-12-22T03:59:19.135Z,3.27
2022-12-22T04:01:47.617Z,3.17
2022-12-22T04:04:14.674Z,3.66
2022-12-22T04:06:41.354Z,3.41
2022-12-22T04:09:07.965Z,3.36
2022-12-22T04:11:34.601Z,3.26
2022-12-22T04:14:01.708Z,3.28
2022-12-22T04:16:28.362Z,3.25
2022-12-22T04:18:55.025Z,3.50
2022-12-22T04:21:21.665Z,3.31
2022-12-22T04:23:48.268Z,3.13
2022-12-22T04:26:14.895Z,3.16
2022-12-22T04:28:41.588Z,2.80
2022-12-22T04:31:09.374Z,2.71
2022-12-22T04:33:35.971Z,2.88
2022-12-22T04:36:02.577Z,2.59
2022-12-22T04:38:29.172Z,2.48
2022-12-22T04:40:55.791Z,2.57
2022-12-22T04:43:22.441Z,2.37
2022-12-22T04:45:52.816Z,2.61
2022-12-22T04:48:19.800Z,2.45
2022-12-22T04:50:46.427Z,2.43
2022-12-22T04:53:13.088Z,2.76
2022-12-22T04:55:39.972Z,2.48
2022-12-22T04:58:06.576Z,2.35
2022-12-22T05:00:33.219Z,2.22
2022-12-22T05:03:00.098Z,2.43
2022-12-22T05:05:26.893Z,2.20
2022-12-22T05:07:53.551Z,2.17
2022-12-22T05:10:20.150Z,2.16
2022-12-22T05:12:46.781Z,2.27
2022-12-22T05:15:13.422Z,2.18
2022-12-22T05:17:40.069Z,2.11
2022-12-22T05:20:07.635Z,2.08
2022-12-22T05:22:34.224Z,2.29
2022-12-22T05:25:00.893Z,2.50
2022-12-22T05:27:27.557Z,2.67
2022-12-22T05:29:54.187Z,2.83
2022-12-22T05:32:20.789Z,2.57
2022-12-22T05:34:47.453Z,2.76
2022-12-22T05:37:14.144Z,2.30
2022-12-22T05:39:40.821Z,2.37
2022-12-22T05:42:07.436Z,2.32
2022-12-22T05:44:34.061Z,2.23
2022-12-22T05:47:00.716Z,2.17
2022-12-22T05:49:27.364Z,2.15
2022-12-22T05:51:54.168Z,2.27
2022-12-22T05:54:20.833Z,2.02
2022-12-22T05:56:47.443Z,2.14
2022-12-22T05:59:14.105Z,2.01
2022-12-22T06:01:40.743Z,2.33
2022-12-22T06:04:07.514Z,2.05
2022-12-22T06:06:34.301Z,2.29
2022-12-22T06:09:00.991Z,2.42
2022-12-22T06:11:27.756Z,2.30
2022-12-22T06:13:54.427Z,2.16
2022-12-22T06:16:21.132Z,2.11
2022-12-22T06:18:47.895Z,2.36
2022-12-22T06:21:14.504Z,2.60
2022-12-22T06:23:41.155Z,2.46
2022-12-22T06:26:08.668Z,2.24
2022-12-22T06:28:35.327Z,2.04
2022-12-22T06:31:01.984Z,2.39
2022-12-22T06:33:28.614Z,2.26
2022-12-22T06:35:58.888Z,2.42
2022-12-22T06:38:27.198Z,2.50
2022-12-22T06:40:53.841Z,2.56
2022-12-22T06:43:20.487Z,2.64
2022-12-22T06:45:47.092Z,2.62
2022-12-22T06:48:13.783Z,2.59
2022-12-22T06:50:40.471Z,2.87
2022-12-22T06:53:07.304Z,2.67
2022-12-22T06:55:33.956Z,2.40
2022-12-22T06:58:00.653Z,2.47
2022-12-22T07:00:27.283Z,2.61
2022-12-22T07:02:54.150Z,2.51
2022-12-22T07:05:21.006Z,2.56
2022-12-22T07:07:47.634Z,2.46
2022-12-22T07:10:14.318Z,2.42
2022-12-22T07:12:41.024Z,2.43
2022-12-22T07:15:08.493Z,2.24
2022-12-22T07:17:35.134Z,2.29
2022-12-22T07:20:01.787Z,2.63
2022-12-22T07:22:30.643Z,2.37
2022-12-22T07:24:58.352Z,2.31
2022-12-22T07:27:25.014Z,2.32
2022-12-22T07:29:51.685Z,2.09
2022-12-22T07:32:18.392Z,2.22
2022-12-22T07:34:45.093Z,2.02
2022-12-22T07:37:11.741Z,2.14
2022-12-22T07:39:38.378Z,2.09
2022-12-22T07:42:05.125Z,2.25
2022-12-22T07:44:31.761Z,1.99
2022-12-22T07:46:59.028Z,2.16
2022-12-22T07:49:25.786Z,1.95
2022-12-22T07:51:52.476Z,2.11
2022-12-22T07:54:19.232Z,2.47
2022-12-22T07:56:46.577Z,2.18
2022-12-22T07:59:13.463Z,2.48
2022-12-22T08:01:40.330Z,2.32
2022-12-22T08:04:07.848Z,2.72
2022-12-22T08:06:34.565Z,2.25
2022-12-22T08:09:01.596Z,2.48
2022-12-22T08:11:28.231Z,2.57
2022-12-22T08:14:00.954Z,2.35
2022-12-22T08:16:28.518Z,2.15
2022-12-22T08:18:55.260Z,2.33
2022-12-22T08:21:21.898Z,2.55
2022-12-22T08:23:48.509Z,2.59
2022-12-22T08:26:27.107Z,2.45
2022-12-22T08:29:05.202Z,2.66
2022-12-22T08:31:31.888Z,2.42
2022-12-22T08:33:59.117Z,2.79
2022-12-22T08:36:25.819Z,2.48
2022-12-22T08:38:52.490Z,2.33
2022-12-22T08:41:19.121Z,2.73
2022-12-22T08:43:45.715Z,2.58
2022-12-22T08:46:12.324Z,3.00
2022-12-22T08:48:38.968Z,2.98
2022-12-22T08:51:05.793Z,3.21
2022-12-22T08:54:04.536Z,3.08
2022-12-22T08:56:18.965Z,2.98
2022-12-22T08:58:45.582Z,3.15
2022-12-22T09:01:18.797Z,3.31
2022-12-22T09:03:49.544Z,2.96
2022-12-22T09:06:16.853Z,2.94
2022-12-22T09:08:43.494Z,2.68
2022-12-22T09:11:10.131Z,3.03
2022-12-22T09:13:36.791Z,2.84
2022-12-22T09:16:09.654Z,3.38
2022-12-22T09:18:36.345Z,3.28
2022-12-22T09:21:02.992Z,2.83
2022-12-22T09:23:30.809Z,2.75
2022-12-22T09:25:57.487Z,3.03
2022-12-22T09:28:24.161Z,2.93
2022-12-22T09:30:51.419Z,3.05
2022-12-22T09:33:18.121Z,2.65
2022-12-22T09:35:44.779Z,3.06
2022-12-22T09:38:11.434Z,3.30
2022-12-22T09:40:38.041Z,2.77
2022-12-22T09:43:04.709Z,2.81
2022-12-22T09:45:31.452Z,2.57
2022-12-22T09:47:58.117Z,2.74
2022-12-22T09:50:25.577Z,2.84
2022-12-22T09:52:57.827Z,2.87
2022-12-22T09:55:24.311Z,2.89
2022-12-22T09:57:51.357Z,2.90
2022-12-22T10:00:20.159Z,2.87
2022-12-22T10:03:20.738Z,2.77
2022-12-22T10:05:54.726Z,2.88
2022-12-22T10:08:28.771Z,2.79
2022-12-22T10:10:55.805Z,2.87
2022-12-22T10:13:22.538Z,2.75
2022-12-22T10:15:49.349Z,2.80
2022-12-22T10:18:17.710Z,2.73
2022-12-22T10:21:06.339Z,2.98
2022-12-22T10:23:33.028Z,2.71
2022-12-22T10:29:14.654Z,2.88
2022-12-22T10:32:05.306Z,2.78
2022-12-22T10:34:32.022Z,2.64
2022-12-22T10:37:02.848Z,2.80
2022-12-22T10:39:33.841Z,2.88
2022-12-22T10:42:02.227Z,3.02
2022-12-22T10:44:30.439Z,2.74
2022-12-22T10:47:00.935Z,2.68
2022-12-22T10:52:30.141Z,2.91
2022-12-22T10:55:29.766Z,3.18
2022-12-22T10:58:18.413Z,3.07
2022-12-22T11:00:45.189Z,2.66
2022-12-22T11:03:12.245Z,3.02
2022-12-22T11:05:39.046Z,2.91
2022-12-22T11:08:18.720Z,3.30
2022-12-22T11:10:54.441Z,3.28
2022-12-22T11:13:33.292Z,3.51
2022-12-22T11:16:13.737Z,3.06
2022-12-22T11:18:50.200Z,2.94
2022-12-22T11:21:24.049Z,2.92
2022-12-22T11:24:11.424Z,3.18
2022-12-22T11:26:56.722Z,2.95
2022-12-22T11:29:28.232Z,3.04
2022-12-22T11:32:04.121Z,3.61
2022-12-22T11:34:48.845Z,4.21
2022-12-22T11:37:49.439Z,3.74
2022-12-22T11:40:30.744Z,3.33
2022-12-22T11:43:10.523Z,3.97
2022-12-22T11:45:58.974Z,3.52
2022-12-22T11:48:54.535Z,3.58
2022-12-22T11:51:42.762Z,4.00
2022-12-22T11:54:27.982Z,4.58
2022-12-22T11:57:16.509Z,4.18
2022-12-22T11:59:49.324Z,4.83
2022-12-22T12:02:28.280Z,4.06
2022-12-22T12:05:18.400Z,3.46
2022-12-22T12:07:54.184Z,3.87
2022-12-22T12:10:24.725Z,4.04
2022-12-22T12:13:12.881Z,3.03
2022-12-22T12:15:47.973Z,3.20
2022-12-22T12:18:35.114Z,3.83
2022-12-22T12:21:16.489Z,3.27
2022-12-22T12:23:58.202Z,3.40
2022-12-22T12:26:25.888Z,3.77
2022-12-22T12:29:09.045Z,3.55
2022-12-22T12:31:42.502Z,3.41
2022-12-22T12:34:14.336Z,3.58
2022-12-22T12:36:57.077Z,3.60
2022-12-22T12:39:29.683Z,3.43
2022-12-22T12:42:20.543Z,4.48
2022-12-22T12:44:47.209Z,3.59
2022-12-22T12:47:33.218Z,3.44
2022-12-22T12:49:59.711Z,3.92
2022-12-22T12:52:41.306Z,3.74
2022-12-22T12:55:38.161Z,3.52
2022-12-22T12:58:05.418Z,3.14
2022-12-22T13:00:31.953Z,3.58
2022-12-22T13:02:59.812Z,3.43
2022-12-22T13:05:34.168Z,3.76
2022-12-22T13:08:13.685Z,3.63
2022-12-22T13:10:48.624Z,3.38
2022-12-22T13:13:24.235Z,3.44
2022-12-22T13:16:03.002Z,3.65
2022-12-22T13:18:35.537Z,3.78
2022-12-22T13:21:42.038Z,3.64
2022-12-22T13:24:22.898Z,3.61
2022-12-22T13:26:42.527Z,3.44
2022-12-22T13:29:17.321Z,3.19
2022-12-22T13:31:52.415Z,3.55
2022-12-22T13:35:04.870Z,3.68
2022-12-22T13:37:41.253Z,3.70
2022-12-22T13:40:18.853Z,3.49
2022-12-22T13:42:56.369Z,3.27
2022-12-22T13:45:29.040Z,3.57
2022-12-22T13:47:55.667Z,3.50
2022-12-22T13:50:26.180Z,3.78
2022-12-22T13:52:53.026Z,3.98
2022-12-22T13:55:23.562Z,4.06
2022-12-22T13:57:58.065Z,3.56
2022-12-22T14:00:25.986Z,3.75
2022-12-22T14:02:53.701Z,3.90
2022-12-22T14:05:20.415Z,3.68
2022-12-22T14:08:01.086Z,3.98
2022-12-22T14:10:29.832Z,4.06
2022-12-22T14:12:56.429Z,3.53
2022-12-22T14:15:23.056Z,3.91
2022-12-22T14:17:53.067Z,3.80
2022-12-22T14:20:36.106Z,3.70
2022-12-22T14:23:12.700Z,3.55
2022-12-22T14:25:40.484Z,4.22
2022-12-22T14:28:28.744Z,4.85
2022-12-22T14:30:59.022Z,4.48
2022-12-22T14:33:25.485Z,4.44
2022-12-22T14:35:52.152Z,4.62
2022-12-22T14:38:25.991Z,3.86
2022-12-22T14:40:57.115Z,3.80
2022-12-22T14:43:29.705Z,3.80
2022-12-22T14:46:05.371Z,3.54
2022-12-22T14:48:33.743Z,4.13
2022-12-22T14:51:00.405Z,4.11
2022-12-22T14:53:42.797Z,4.64
2022-12-22T14:56:13.333Z,4.42
2022-12-22T14:58:44.072Z,3.78
2022-12-22T15:01:27.486Z,3.85
2022-12-22T15:03:58.525Z,3.78
2022-12-22T15:06:28.227Z,3.97
2022-12-22T15:09:06.869Z,4.21
2022-12-22T15:11:33.527Z,4.60
2022-12-22T15:14:00.271Z,4.25
2022-12-22T15:16:27.090Z,4.29
2022-12-22T15:18:53.730Z,3.97
2022-12-22T15:21:20.376Z,4.22
2022-12-22T15:23:47.017Z,4.57
2022-12-22T15:26:13.711Z,4.50
2022-12-22T15:28:40.414Z,4.43
2022-12-22T15:31:12.900Z,3.91
2022-12-22T15:33:39.581Z,4.17
2022-12-22T15:36:06.410Z,4.21
2022-12-22T15:38:38.552Z,3.89
2022-12-22T15:41:06.168Z,4.75
2022-12-22T15:46:19.496Z,4.31
2022-12-22T15:48:46.242Z,4.06
2022-12-22T15:51:22.255Z,4.10
2022-12-22T15:53:48.905Z,4.18
2022-12-22T15:56:21.162Z,4.20
2022-12-22T15:58:47.795Z,3.90
2022-12-22T16:01:14.461Z,4.63
2022-12-22T16:03:41.219Z,4.66
2022-12-22T16:06:14.021Z,4.24
2022-12-22T16:08:43.266Z,4.37
2022-12-22T16:11:09.915Z,4.01
2022-12-22T16:13:36.766Z,4.10
2022-12-22T16:16:03.982Z,4.07
2022-12-22T16:18:30.866Z,4.40
2022-12-22T16:20:58.137Z,4.40
2022-12-22T16:23:25.581Z,4.41
2022-12-22T16:26:00.660Z,4.59
2022-12-22T16:28:28.245Z,4.71
2022-12-22T16:30:54.888Z,4.41
2022-12-22T16:33:21.559Z,4.67
2022-12-22T16:35:48.177Z,4.37
2022-12-22T16:38:19.026Z,4.17
2022-12-22T16:40:50.595Z,4.45
2022-12-22T16:43:49.034Z,4.10
2022-12-22T16:46:18.477Z,3.97
2022-12-22T16:48:46.845Z,4.14
2022-12-22T16:51:23.138Z,3.95
2022-12-22T16:53:49.736Z,4.21
2022-12-22T16:56:23.614Z,3.89
2022-12-22T16:58:50.401Z,4.10
2022-12-22T17:01:20.261Z,3.86
2022-12-22T17:03:46.966Z,4.08
2022-12-22T17:06:13.638Z,4.04
2022-12-22T17:08:40.259Z,3.98
2022-12-22T17:11:10.949Z,4.17
2022-12-22T17:13:37.940Z,3.83
2022-12-22T17:16:05.134Z,3.68
2022-12-22T17:18:31.820Z,4.11
2022-12-22T17:20:58.871Z,4.31
2022-12-22T17:23:34.160Z,4.16
2022-12-22T17:26:01.701Z,4.34
2022-12-22T17:28:29.029Z,3.96
2022-12-22T17:30:55.820Z,4.60
2022-12-22T17:33:22.514Z,3.79
2022-12-22T17:35:49.372Z,3.99
2022-12-22T17:38:17.426Z,4.26
2022-12-22T17:40:44.139Z,3.99
2022-12-22T17:43:14.805Z,4.25
2022-12-22T17:45:42.067Z,4.12
2022-12-22T17:48:08.731Z,4.30
2022-12-22T17:50:35.550Z,4.49
2022-12-22T17:53:02.289Z,4.36
2022-12-22T17:56:05.808Z,4.82
2022-12-22T17:58:16.614Z,4.24
2022-12-22T18:00:43.235Z,4.39
2022-12-22T18:03:13.512Z,4.19
2022-12-22T18:05:42.279Z,4.70
2022-12-22T18:08:13.369Z,4.30
2022-12-22T18:10:40.038Z,4.75
2022-12-22T18:13:20.704Z,4.98
2022-12-22T18:15:47.428Z,4.95
2022-12-22T18:18:15.234Z,4.56
2022-12-22T18:20:42.387Z,4.83
2022-12-22T18:23:28.269Z,5.05
2022-12-22T18:25:54.975Z,5.00
2022-12-22T18:28:21.616Z,4.87
2022-12-22T18:30:48.222Z,4.83
2022-12-22T18:33:14.815Z,4.92
2022-12-22T18:35:41.584Z,5.24
2022-12-22T18:38:17.858Z,5.07
2022-12-22T18:40:44.491Z,4.74
2022-12-22T18:43:13.965Z,5.17
2022-12-22T18:45:40.736Z,5.29
2022-12-22T18:48:07.445Z,5.05
2022-12-22T18:50:34.079Z,5.56
2022-12-22T18:53:03.032Z,5.16
2022-12-22T18:55:31.342Z,5.64
2022-12-22T18:57:58.425Z,5.59
2022-12-22T19:00:29.470Z,5.36
2022-12-22T19:03:00.038Z,5.42
2022-12-22T19:05:31.362Z,5.34
2022-12-22T19:07:58.157Z,5.37
2022-12-22T19:10:30.717Z,5.25
2022-12-22T19:12:57.366Z,5.00
2022-12-22T19:15:29.560Z,4.49
2022-12-22T19:17:56.136Z,4.77
2022-12-22T19:20:23.613Z,5.42
2022-12-22T19:22:50.274Z,4.76
2022-12-22T19:25:24.678Z,5.16
2022-12-22T19:27:52.284Z,4.47
2022-12-22T19:30:20.858Z,4.25
2022-12-22T19:32:49.002Z,4.34
2022-12-22T19:35:20.118Z,4.17
2022-12-22T19:37:47.132Z,4.34
2022-12-22T19:40:14.526Z,4.05
2022-12-22T19:42:41.773Z,4.73
2022-12-22T19:45:28.018Z,4.26
2022-12-22T19:47:55.460Z,4.20
2022-12-22T19:50:23.852Z,4.53
2022-12-22T19:52:51.106Z,4.44
2022-12-22T19:55:17.811Z,5.06
2022-12-22T19:57:44.947Z,5.59
2022-12-22T20:00:20.128Z,5.49
2022-12-22T20:02:47.359Z,5.05
2022-12-22T20:05:32.271Z,4.82
2022-12-22T20:08:00.240Z,4.70
2022-12-22T20:10:28.494Z,4.57
2022-12-22T20:13:00.286Z,4.50
2022-12-22T20:15:31.541Z,4.64
2022-12-22T20:17:58.163Z,5.33
2022-12-22T20:20:37.054Z,5.19
2022-12-22T20:23:06.401Z,5.02
2022-12-22T20:25:38.399Z,5.09
2022-12-22T20:28:11.143Z,5.01
2022-12-22T20:30:38.798Z,4.90
2022-12-22T20:33:05.445Z,4.83
2022-12-22T20:35:32.060Z,5.05
2022-12-22T20:37:58.671Z,4.96
2022-12-22T20:40:27.593Z,4.90
2022-12-22T20:42:54.239Z,4.79
2022-12-22T20:45:20.983Z,4.94
2022-12-22T20:47:48.649Z,4.76
2022-12-22T20:50:20.524Z,4.37
2022-12-22T20:52:47.780Z,4.11
2022-12-22T20:55:15.741Z,4.04
2022-12-22T20:57:43.203Z,4.23
2022-12-22T21:00:23.887Z,4.37
2022-12-22T21:02:50.738Z,4.76
2022-12-22T21:05:18.592Z,4.36
2022-12-22T21:07:46.177Z,4.20
2022-12-22T21:10:17.630Z,4.10
2022-12-22T21:12:44.246Z,3.52
2022-12-22T21:15:16.395Z,3.08
2022-12-22T21:17:46.110Z,3.28
2022-12-22T21:20:17.781Z,3.22
2022-12-22T21:22:44.425Z,3.22
2022-12-22T21:25:12.282Z,3.15
2022-12-22T21:27:39.699Z,2.97
2022-12-22T21:30:17.987Z,2.67
2022-12-22T21:32:44.757Z,2.51
2022-12-22T21:35:15.999Z,2.63
2022-12-22T21:37:43.226Z,2.78
2022-12-22T21:40:23.085Z,2.75
2022-12-22T21:42:49.792Z,2.55
2022-12-22T21:45:18.667Z,2.51
2022-12-22T21:47:45.365Z,2.55
2022-12-22T21:50:26.743Z,2.97
2022-12-22T21:52:53.383Z,2.63
2022-12-22T21:55:21.971Z,2.64
2022-12-22T21:57:48.631Z,2.72
2022-12-22T22:00:16.357Z,2.38
2022-12-22T22:02:43.059Z,2.55
2022-12-22T22:05:33.964Z,2.13
2022-12-22T22:08:00.866Z,2.17
2022-12-22T22:10:38.090Z,2.15
2022-12-22T22:13:04.807Z,2.05
2022-12-22T22:15:31.748Z,1.79
2022-12-22T22:18:02.963Z,1.93
2022-12-22T22:20:33.276Z,1.89
2022-12-22T22:22:59.977Z,2.01
2022-12-22T22:25:26.665Z,1.82
2022-12-22T22:27:53.309Z,1.98
2022-12-22T22:30:24.358Z,2.15
2022-12-22T22:32:51.084Z,2.26
2022-12-22T22:35:17.777Z,2.02
2022-12-22T22:37:44.747Z,2.08
2022-12-22T22:40:13.808Z,2.05
2022-12-22T22:42:40.566Z,1.69
2022-12-22T22:45:07.626Z,1.92
2022-12-22T22:47:34.672Z,1.73
2022-12-22T22:50:05.941Z,1.72
2022-12-22T22:52:33.589Z,1.86
2022-12-22T22:55:00.202Z,1.96
2022-12-22T22:57:26.836Z,1.96
2022-12-22T22:59:53.424Z,1.79
2022-12-22T23:02:20.242Z,1.84
2022-12-22T23:04:47.088Z,1.50
2022-12-22T23:07:13.735Z,1.46
2022-12-22T23:09:40.403Z,1.47
2022-12-22T23:12:07.003Z,1.30
2022-12-22T23:14:33.655Z,1.37
2022-12-22T23:17:00.255Z,1.55
2022-12-22T23:19:26.864Z,1.64
2022-12-22T23:21:53.553Z,1.52
2022-12-22T23:24:20.226Z,1.26
2022-12-22T23:26:47.492Z,1.32
2022-12-22T23:29:14.092Z,1.50
2022-12-22T23:31:40.739Z,1.78
2022-12-22T23:34:07.389Z,1.73
2022-12-22T23:36:33.973Z,1.59
2022-12-22T23:39:00.700Z,1.80
2022-12-22T23:41:27.300Z,1.55
2022-12-22T23:43:54.090Z,1.40
2022-12-22T23:46:20.772Z,1.25
2022-12-22T23:48:54.666Z,1.53
2022-12-22T23:51:22.123Z,1.49
2022-12-22T23:53:48.757Z,1.53
2022-12-22T23:56:15.440Z,1.41
2022-12-22T23:58:42.106Z,1.61
